Time;durP1;ratioP1;P1;durP2;ratioP2;P2;SDS_P1;SDS_P2;PMS_P1;PMS_P2;Temp;Humidity;BMP_temperature;BMP_pressure;BME280_temperature;BME280_humidity;BME280_pressure;Samples;Min_cycle;Max_cycle;Signal;HPM_P1;HPM_P2
2021/08/02 00:00:16;;;;;;;5.70;3.20;;;12.80;98.00;;;;;;6220972;23;20053;-72
2021/08/02 00:02:55;;;;;;;5.97;3.05;;;12.70;98.00;;;;;;6248651;23;19996;-73
2021/08/02 00:05:22;;;;;;;5.95;2.92;;;12.70;98.00;;;;;;6248933;23;20004;-72
2021/08/02 00:08:00;;;;;;;8.15;3.28;;;12.70;98.00;;;;;;6249151;23;20007;-72
2021/08/02 00:10:36;;;;;;;6.30;3.70;;;12.70;98.00;;;;;;6248586;23;20384;-73
2021/08/02 00:13:08;;;;;;;6.82;3.70;;;12.60;98.00;;;;;;6248496;23;20000;-72
2021/08/02 00:15:35;;;;;;;4.97;2.80;;;12.70;98.00;;;;;;6246136;23;20002;-72
2021/08/02 00:18:02;;;;;;;6.85;3.33;;;12.60;98.00;;;;;;6248931;23;20032;-71
2021/08/02 00:20:32;;;;;;;5.30;3.45;;;12.60;98.00;;;;;;6249005;23;19997;-73
2021/08/02 00:23:02;;;;;;;6.85;3.40;;;12.60;98.00;;;;;;6222655;23;20004;-71
2021/08/02 00:25:29;;;;;;;5.10;2.95;;;12.60;98.00;;;;;;6222498;23;20004;-71
2021/08/02 00:27:55;;;;;;;6.40;3.03;;;12.60;98.00;;;;;;6248353;23;20070;-74
2021/08/02 00:30:22;;;;;;;5.53;2.90;;;12.60;98.00;;;;;;6247633;23;20069;-73
2021/08/02 00:32:47;;;;;;;6.50;3.45;;;12.60;98.00;;;;;;6248723;23;20367;-73
2021/08/02 00:35:13;;;;;;;6.57;3.67;;;12.60;98.00;;;;;;6248174;23;20004;-73
2021/08/02 00:38:03;;;;;;;7.35;3.47;;;12.50;98.00;;;;;;6248553;23;20425;-71
2021/08/02 00:40:47;;;;;;;5.85;3.38;;;12.60;98.00;;;;;;6221888;23;20088;-71
2021/08/02 00:43:51;;;;;;;8.15;4.22;;;12.60;98.00;;;;;;6222065;23;20266;-71
2021/08/02 00:46:19;;;;;;;9.38;3.80;;;12.60;98.00;;;;;;6186902;23;20047;-71
2021/08/02 00:49:03;;;;;;;16.30;3.47;;;12.50;98.00;;;;;;6188473;23;20275;-71
2021/08/02 00:51:34;;;;;;;7.82;3.13;;;12.50;98.00;;;;;;6187036;23;20012;-72
2021/08/02 00:54:01;;;;;;;6.35;3.30;;;12.50;98.00;;;;;;6187995;23;20270;-71
2021/08/02 00:56:31;;;;;;;4.93;3.00;;;12.50;98.00;;;;;;6188173;23;20005;-72
2021/08/02 00:59:04;;;;;;;6.53;3.30;;;12.60;98.00;;;;;;6189466;23;20024;-73
2021/08/02 01:01:34;;;;;;;6.88;3.30;;;12.60;98.00;;;;;;6188491;23;20004;-72
2021/08/02 01:04:01;;;;;;;5.40;3.25;;;12.60;98.00;;;;;;6188627;23;20001;-72
2021/08/02 01:06:31;;;;;;;6.28;2.90;;;12.50;98.00;;;;;;6189502;23;20068;-72
2021/08/02 01:09:00;;;;;;;6.60;3.20;;;12.50;98.00;;;;;;6190237;23;20016;-72
2021/08/02 01:11:28;;;;;;;5.28;2.92;;;12.50;98.00;;;;;;6188933;23;20041;-72
2021/08/02 01:13:55;;;;;;;6.40;3.38;;;12.50;98.00;;;;;;6190046;23;20005;-72
2021/08/02 01:16:21;;;;;;;5.32;3.30;;;12.50;98.00;;;;;;6188926;23;20317;-72
2021/08/02 01:18:48;;;;;;;7.47;2.90;;;12.50;98.00;;;;;;6190383;23;20005;-74
2021/08/02 01:21:19;;;;;;;5.97;3.15;;;12.50;98.00;;;;;;6189539;23;20016;-72
2021/08/02 01:23:47;;;;;;;9.23;3.05;;;12.50;98.00;;;;;;6190197;23;20001;-73
2021/08/02 01:26:43;;;;;;;5.25;2.70;;;12.60;98.00;;;;;;6189741;23;19998;-72
2021/08/02 01:29:46;;;;;;;5.68;3.28;;;12.60;98.00;;;;;;6188917;23;20001;-72
2021/08/02 01:32:17;;;;;;;8.25;3.10;;;12.50;98.00;;;;;;6189685;23;20005;-72
2021/08/02 01:34:43;;;;;;;6.68;2.80;;;12.50;98.00;;;;;;6190017;23;20005;-72
2021/08/02 01:37:10;;;;;;;4.95;2.80;;;12.50;98.00;;;;;;6190321;23;20005;-72
2021/08/02 01:39:36;;;;;;;5.80;3.05;;;12.40;98.00;;;;;;6188614;23;20031;-73
2021/08/02 01:42:03;;;;;;;6.40;3.10;;;12.40;98.00;;;;;;6189590;23;20037;-72
2021/08/02 01:44:28;;;;;;;6.05;3.22;;;12.50;98.00;;;;;;6212166;23;20038;-73
2021/08/02 01:47:03;;;;;;;5.78;3.28;;;12.50;98.00;;;;;;6250597;23;20000;-72
2021/08/02 01:49:38;;;;;;;5.68;3.03;;;12.50;98.00;;;;;;6250081;23;20000;-72
2021/08/02 01:52:07;;;;;;;6.10;2.88;;;12.50;98.00;;;;;;6250332;23;20000;-73
2021/08/02 01:54:55;;;;;;;8.00;3.00;;;12.50;98.00;;;;;;6250423;23;20012;-73
2021/08/02 01:57:22;;;;;;;4.60;2.53;;;12.50;98.00;;;;;;6223725;23;20012;-73
2021/08/02 02:00:05;;;;;;;4.78;2.80;;;12.50;98.00;;;;;;6248560;23;20008;-73
2021/08/02 02:02:33;;;;;;;5.18;2.50;;;12.50;98.00;;;;;;6249357;23;20011;-73
2021/08/02 02:05:23;;;;;;;7.32;3.08;;;12.50;98.00;;;;;;6250244;23;20424;-73
2021/08/02 02:07:55;;;;;;;5.22;3.10;;;12.40;98.00;;;;;;6223101;23;20030;-73
2021/08/02 02:10:24;;;;;;;4.30;2.47;;;12.40;98.00;;;;;;6250046;23;20011;-73
2021/08/02 02:12:52;;;;;;;4.32;2.50;;;12.50;98.00;;;;;;6250123;23;20034;-73
2021/08/02 02:15:18;;;;;;;11.32;2.78;;;12.40;98.00;;;;;;6248443;23;20000;-73
2021/08/02 02:17:45;;;;;;;5.60;2.95;;;12.40;98.00;;;;;;6223073;23;20000;-73
2021/08/02 02:20:13;;;;;;;8.15;2.70;;;12.40;98.00;;;;;;6250470;23;20353;-73
2021/08/02 02:22:40;;;;;;;4.32;2.50;;;12.50;98.00;;;;;;6250125;23;20411;-73
2021/08/02 02:25:08;;;;;;;5.38;2.75;;;12.50;98.00;;;;;;6250225;23;20000;-72
2021/08/02 02:27:37;;;;;;;5.45;2.78;;;12.50;98.00;;;;;;6250158;23;20000;-73
2021/08/02 02:30:06;;;;;;;5.32;2.50;;;12.50;98.00;;;;;;6248648;23;20071;-73
2021/08/02 02:32:34;;;;;;;6.45;2.80;;;12.40;98.00;;;;;;6250013;23;20392;-73
2021/08/02 02:35:02;;;;;;;6.85;2.60;;;12.40;98.00;;;;;;6250182;23;20011;-73
2021/08/02 02:37:29;;;;;;;4.47;2.30;;;12.40;98.00;;;;;;6249698;23;20011;-73
2021/08/02 02:39:54;;;;;;;7.28;2.90;;;12.40;98.00;;;;;;6250352;23;20000;-73
2021/08/02 02:42:21;;;;;;;7.53;3.58;;;12.30;98.00;;;;;;6249582;23;20087;-73
2021/08/02 02:44:49;;;;;;;6.57;3.00;;;12.30;98.00;;;;;;6248211;23;20016;-72
2021/08/02 02:47:18;;;;;;;8.20;3.10;;;12.30;98.00;;;;;;6250142;23;20020;-73
2021/08/02 02:49:44;;;;;;;5.32;2.97;;;12.30;98.00;;;;;;6249894;23;20058;-73
2021/08/02 02:52:11;;;;;;;5.97;2.95;;;12.20;98.00;;;;;;6250069;23;20019;-73
2021/08/02 02:54:38;;;;;;;5.05;3.05;;;12.30;98.00;;;;;;6249753;23;20004;-73
2021/08/02 02:57:04;;;;;;;5.57;2.80;;;12.30;98.00;;;;;;6249669;23;20004;-73
2021/08/02 02:59:30;;;;;;;5.25;3.13;;;12.30;98.00;;;;;;6248604;23;20099;-74
2021/08/02 03:01:59;;;;;;;5.90;2.95;;;12.30;98.00;;;;;;6249530;23;20047;-73
2021/08/02 03:04:30;;;;;;;5.43;2.58;;;12.30;98.00;;;;;;6249898;23;19996;-74
2021/08/02 03:06:58;;;;;;;5.85;2.53;;;12.20;98.00;;;;;;6249896;23;20261;-73
2021/08/02 03:09:27;;;;;;;4.53;2.60;;;12.20;98.00;;;;;;6249878;23;20003;-74
2021/08/02 03:11:53;;;;;;;7.82;3.20;;;12.20;98.00;;;;;;6249607;23;20008;-73
2021/08/02 03:14:19;;;;;;;6.35;3.30;;;12.20;98.00;;;;;;6248191;23;20289;-73
2021/08/02 03:16:45;;;;;;;5.03;3.10;;;12.20;98.00;;;;;;6249819;23;20007;-73
2021/08/02 03:19:10;;;;;;;7.28;3.42;;;12.10;98.00;;;;;;6249600;23;20004;-74
2021/08/02 03:21:36;;;;;;;8.93;3.67;;;12.10;97.80;;;;;;6249444;23;20000;-74
2021/08/02 03:24:31;;;;;;;5.88;3.30;;;12.10;97.60;;;;;;6249343;23;20464;-74
2021/08/02 03:27:05;;;;;;;6.30;3.33;;;12.10;97.30;;;;;;6248905;23;20058;-74
2021/08/02 03:29:34;;;;;;;6.90;3.58;;;12.10;97.40;;;;;;6221503;23;20127;-74
2021/08/02 03:32:12;;;;;;;5.80;3.28;;;12.10;97.50;;;;;;6249588;23;20019;-74
2021/08/02 03:34:38;;;;;;;6.25;3.33;;;12.00;97.30;;;;;;6249597;23;20071;-74
2021/08/02 03:37:08;;;;;;;6.03;2.95;;;12.00;97.20;;;;;;6249548;23;20004;-74
2021/08/02 03:39:35;;;;;;;6.88;3.20;;;12.00;97.00;;;;;;6249604;23;20027;-74
2021/08/02 03:42:03;;;;;;;6.95;3.50;;;12.00;96.90;;;;;;6249078;23;20004;-74
2021/08/02 03:44:30;;;;;;;6.20;3.20;;;11.90;97.00;;;;;;6247636;23;20015;-74
2021/08/02 03:46:56;;;;;;;6.68;2.90;;;11.90;96.60;;;;;;6249362;23;20354;-74
2021/08/02 03:49:22;;;;;;;6.43;3.95;;;11.90;96.90;;;;;;6248953;23;20004;-74
2021/08/02 03:51:52;;;;;;;5.60;3.00;;;11.90;96.50;;;;;;6249859;23;20012;-73
2021/08/02 03:54:18;;;;;;;6.82;3.33;;;11.90;96.60;;;;;;6249313;23;20004;-73
2021/08/02 03:56:44;;;;;;;5.35;3.28;;;11.80;96.30;;;;;;6249310;23;20010;-74
2021/08/02 03:59:11;;;;;;;8.13;3.58;;;11.90;96.20;;;;;;6247972;23;20008;-73
2021/08/02 04:01:41;;;;;;;5.57;2.97;;;11.90;95.80;;;;;;6249193;23;20008;-73
2021/08/02 04:04:07;;;;;;;7.75;4.00;;;11.90;96.40;;;;;;6249154;23;20004;-73
2021/08/02 04:06:34;;;;;;;5.88;3.63;;;11.80;96.30;;;;;;6222735;23;20043;-73
2021/08/02 04:09:01;;;;;;;7.88;3.55;;;11.90;96.20;;;;;;6249002;23;20000;-73
2021/08/02 04:11:27;;;;;;;5.22;3.25;;;11.90;96.00;;;;;;6222334;23;20008;-74
2021/08/02 04:13:52;;;;;;;6.75;3.55;;;11.90;96.00;;;;;;6249182;23;20358;-74
2021/08/02 04:16:18;;;;;;;5.03;3.35;;;11.80;96.20;;;;;;6247432;23;20000;-74
2021/08/02 04:18:43;;;;;;;5.70;2.97;;;11.80;96.00;;;;;;6248728;23;20004;-74
2021/08/02 04:21:10;;;;;;;6.07;2.50;;;11.90;95.20;;;;;;6248543;23;20008;-74
2021/08/02 04:23:35;;;;;;;5.68;3.30;;;11.90;96.70;;;;;;6249026;23;20035;-74
2021/08/02 04:26:01;;;;;;;4.90;3.17;;;11.90;96.70;;;;;;6248789;23;20000;-74
2021/08/02 04:28:27;;;;;;;7.65;3.75;;;12.00;96.40;;;;;;6249122;23;20372;-74
2021/08/02 04:30:52;;;;;;;7.03;3.92;;;12.00;96.90;;;;;;6247644;23;20000;-74
2021/08/02 04:33:18;;;;;;;6.55;3.38;;;12.00;96.70;;;;;;6249896;23;20074;-74
2021/08/02 04:35:44;;;;;;;5.60;3.50;;;12.00;96.60;;;;;;6251026;23;20361;-74
2021/08/02 04:38:10;;;;;;;6.43;3.13;;;12.00;96.60;;;;;;6250964;23;20036;-74
2021/08/02 04:40:36;;;;;;;8.65;3.45;;;12.00;96.00;;;;;;6224259;23;20004;-73
2021/08/02 04:43:02;;;;;;;5.80;3.10;;;12.10;96.70;;;;;;6251163;23;20362;-73
2021/08/02 04:45:28;;;;;;;5.03;3.13;;;12.00;96.40;;;;;;6249221;23;20138;-74
2021/08/02 04:47:53;;;;;;;6.70;3.03;;;12.00;96.90;;;;;;6251036;23;20035;-74
2021/08/02 04:50:19;;;;;;;6.65;3.20;;;12.10;96.50;;;;;;6250795;23;20004;-74
2021/08/02 04:52:47;;;;;;;8.77;3.30;;;12.10;97.40;;;;;;6250861;23;20000;-74
2021/08/02 04:55:13;;;;;;;7.45;2.95;;;12.10;97.30;;;;;;6251210;23;20393;-74
2021/08/02 04:57:39;;;;;;;6.15;3.10;;;12.10;97.20;;;;;;6250836;23;20004;-73
2021/08/02 05:00:06;;;;;;;5.60;2.85;;;12.20;97.50;;;;;;6249552;23;20012;-74
2021/08/02 05:02:31;;;;;;;4.72;2.85;;;12.20;97.60;;;;;;6250882;23;20000;-74
2021/08/02 05:04:57;;;;;;;11.90;3.53;;;12.30;97.70;;;;;;6250840;23;20000;-74
2021/08/02 05:07:23;;;;;;;7.95;3.08;;;12.30;97.60;;;;;;6250780;23;20258;-74
2021/08/02 05:09:49;;;;;;;5.18;2.60;;;12.40;97.80;;;;;;6250574;23;19997;-74
2021/08/02 05:12:15;;;;;;;8.30;2.83;;;12.40;97.10;;;;;;6224073;23;20039;-74
2021/08/02 05:14:41;;;;;;;6.80;3.22;;;12.50;97.40;;;;;;6249413;23;20008;-74
2021/08/02 05:17:07;;;;;;;6.43;2.22;;;12.60;97.50;;;;;;6250401;23;20007;-74
2021/08/02 05:19:33;;;;;;;4.63;2.40;;;12.50;98.00;;;;;;6224331;23;20008;-73
2021/08/02 05:21:59;;;;;;;5.63;2.58;;;12.60;98.00;;;;;;6250596;23;20000;-74
2021/08/02 05:24:25;;;;;;;6.70;2.35;;;12.70;98.00;;;;;;6224354;23;20079;-73
2021/08/02 05:26:50;;;;;;;6.45;2.75;;;12.70;98.00;;;;;;6250475;23;20031;-74
2021/08/02 05:29:16;;;;;;;4.63;2.35;;;12.80;98.00;;;;;;6249323;23;20003;-74
2021/08/02 05:31:42;;;;;;;4.38;2.42;;;12.90;98.00;;;;;;6250576;23;20015;-74
2021/08/02 05:34:07;;;;;;;4.03;2.20;;;12.90;98.00;;;;;;6224162;23;20012;-74
2021/08/02 05:36:33;;;;;;;4.15;2.30;;;13.00;98.00;;;;;;6250400;23;20000;-73
2021/08/02 05:38:59;;;;;;;5.03;2.25;;;13.10;98.00;;;;;;6249956;23;20008;-73
2021/08/02 05:41:24;;;;;;;4.80;2.30;;;13.30;98.00;;;;;;6250426;23;20008;-74
2021/08/02 05:43:50;;;;;;;5.65;2.35;;;13.40;98.00;;;;;;6250009;23;20011;-73
2021/08/02 05:46:16;;;;;;;4.28;2.10;;;13.50;98.00;;;;;;6248976;23;20454;-74
2021/08/02 05:48:43;;;;;;;5.47;2.20;;;13.50;98.00;;;;;;6250565;23;20074;-74
2021/08/02 05:51:09;;;;;;;3.75;1.92;;;13.50;98.00;;;;;;6250588;23;20034;-74
2021/08/02 05:53:35;;;;;;;3.70;2.08;;;13.60;98.00;;;;;;6250302;23;20042;-74
2021/08/02 05:56:00;;;;;;;5.80;2.08;;;13.80;98.00;;;;;;6250272;23;20004;-74
2021/08/02 05:58:26;;;;;;;5.47;2.20;;;13.90;98.00;;;;;;6250013;23;20000;-74
2021/08/02 06:00:52;;;;;;;3.97;2.10;;;13.90;98.00;;;;;;6248445;23;20004;-73
2021/08/02 06:03:18;;;;;;;3.20;1.65;;;13.90;98.00;;;;;;6249726;23;20012;-74
2021/08/02 06:05:44;;;;;;;4.80;2.20;;;14.00;98.00;;;;;;6249582;23;20067;-74
2021/08/02 06:08:10;;;;;;;4.13;2.20;;;14.10;98.00;;;;;;6250025;23;20287;-74
2021/08/02 06:10:37;;;;;;;5.45;1.98;;;14.20;98.00;;;;;;6249972;23;20381;-73
2021/08/02 06:13:03;;;;;;;6.50;1.60;;;14.40;98.00;;;;;;6250011;23;20003;-74
2021/08/02 06:15:28;;;;;;;5.18;1.95;;;14.50;98.00;;;;;;6248645;23;19996;-74
2021/08/02 06:17:57;;;;;;;5.15;2.15;;;14.60;98.00;;;;;;6249705;23;20042;-73
2021/08/02 06:20:22;;;;;;;4.72;2.00;;;14.70;98.00;;;;;;6250247;23;20063;-73
2021/08/02 06:22:48;;;;;;;4.03;1.92;;;14.80;97.70;;;;;;6250021;23;20370;-73
2021/08/02 06:25:14;;;;;;;3.97;1.83;;;14.90;96.80;;;;;;6223843;23;20058;-74
2021/08/02 06:27:39;;;;;;;5.65;2.10;;;14.90;96.90;;;;;;6250030;23;20304;-73
2021/08/02 06:30:06;;;;;;;3.25;1.60;;;14.80;96.50;;;;;;6248467;23;20036;-73
2021/08/02 06:32:32;;;;;;;4.20;1.83;;;14.80;97.00;;;;;;6250216;23;20459;-73
2021/08/02 06:34:57;;;;;;;3.47;1.85;;;14.80;97.20;;;;;;6249444;23;20004;-73
2021/08/02 06:37:27;;;;;;;5.43;1.75;;;14.90;97.20;;;;;;6249561;23;20000;-74
2021/08/02 06:39:53;;;;;;;3.95;1.70;;;14.90;96.80;;;;;;6249146;23;20010;-73
2021/08/02 06:42:22;;;;;;;4.30;1.70;;;14.90;96.40;;;;;;6249912;23;20409;-73
2021/08/02 06:44:48;;;;;;;4.55;1.50;;;15.10;96.20;;;;;;6248534;23;20282;-74
2021/08/02 06:47:13;;;;;;;5.07;1.50;;;15.50;96.30;;;;;;6249789;23;20000;-73
2021/08/02 06:49:42;;;;;;;4.07;1.73;;;16.00;95.30;;;;;;6249785;23;20002;-73
2021/08/02 06:52:07;;;;;;;2.58;1.30;;;16.40;94.00;;;;;;6249648;23;20000;-72
2021/08/02 06:54:42;;;;;;;4.10;1.55;;;16.60;91.20;;;;;;6249758;23;20011;-71
2021/08/02 06:57:07;;;;;;;3.20;1.55;;;16.50;91.30;;;;;;6249516;23;20023;-71
2021/08/02 06:59:33;;;;;;;3.90;1.70;;;16.50;91.60;;;;;;6248337;23;20323;-71
2021/08/02 07:01:59;;;;;;;5.78;1.70;;;16.50;91.40;;;;;;6249893;23;20032;-71
2021/08/02 07:04:24;;;;;;;5.53;1.60;;;16.70;93.10;;;;;;6249775;23;19996;-73
2021/08/02 07:06:50;;;;;;;4.15;1.65;;;16.80;91.50;;;;;;6249610;23;20050;-72
2021/08/02 07:09:15;;;;;;;5.28;1.70;;;16.90;91.30;;;;;;6249232;23;20000;-73
2021/08/02 07:11:41;;;;;;;4.18;1.60;;;17.00;90.80;;;;;;6248728;23;20357;-72
2021/08/02 07:14:07;;;;;;;6.30;1.80;;;16.70;90.40;;;;;;6249052;23;20361;-72
2021/08/02 07:16:32;;;;;;;10.70;1.55;;;16.70;90.90;;;;;;6249076;23;20004;-73
2021/08/02 07:18:58;;;;;;;4.72;1.60;;;16.90;90.50;;;;;;6249720;23;20038;-73
2021/08/02 07:21:25;;;;;;;2.55;1.25;;;17.00;90.60;;;;;;6249390;23;20011;-73
2021/08/02 07:23:51;;;;;;;5.03;1.50;;;17.20;88.90;;;;;;6249390;23;20024;-73
2021/08/02 07:26:17;;;;;;;5.75;1.60;;;17.30;87.90;;;;;;6249217;23;20042;-73
2021/08/02 07:28:43;;;;;;;7.43;1.50;;;17.30;89.00;;;;;;6249657;23;20001;-72
2021/08/02 07:31:09;;;;;;;3.20;1.30;;;17.70;88.60;;;;;;6248052;23;20353;-72
2021/08/02 07:33:35;;;;;;;2.95;1.40;;;18.00;89.20;;;;;;6249881;23;20004;-72
2021/08/02 07:36:01;;;;;;;4.55;1.42;;;17.80;88.20;;;;;;6249367;23;20007;-72
2021/08/02 07:38:26;;;;;;;2.88;1.55;;;17.70;87.60;;;;;;6249754;23;20000;-73
2021/08/02 07:40:55;;;;;;;4.35;1.70;;;17.60;88.30;;;;;;6249404;23;20259;-73
2021/08/02 07:43:21;;;;;;;4.72;1.40;;;17.70;89.10;;;;;;6249472;23;20011;-73
2021/08/02 07:45:46;;;;;;;3.35;1.70;;;17.80;86.80;;;;;;6247724;23;20020;-72
2021/08/02 07:48:12;;;;;;;3.78;1.58;;;18.10;87.10;;;;;;6249565;23;20000;-72
2021/08/02 07:50:38;;;;;;;4.05;1.63;;;18.40;86.80;;;;;;6249986;23;20007;-72
2021/08/02 07:53:03;;;;;;;5.35;1.67;;;18.50;86.20;;;;;;6249351;23;20003;-73
2021/08/02 07:55:29;;;;;;;7.82;2.38;;;18.50;85.50;;;;;;6249141;23;20441;-73
2021/08/02 07:57:56;;;;;;;5.28;1.60;;;18.30;84.90;;;;;;6249232;23;20004;-73
2021/08/02 08:00:21;;;;;;;3.35;1.63;;;18.00;86.30;;;;;;6248111;23;20002;-73
2021/08/02 08:02:52;;;;;;;3.35;1.30;;;18.00;87.10;;;;;;6249346;23;20012;-72
2021/08/02 08:05:18;;;;;;;5.05;1.48;;;17.90;86.30;;;;;;6249311;23;20024;-72
2021/08/02 08:07:49;;;;;;;5.10;1.70;;;17.90;87.10;;;;;;6249125;23;20023;-72
2021/08/02 08:10:17;;;;;;;3.72;1.45;;;18.30;87.00;;;;;;6249533;23;20062;-73
2021/08/02 08:12:43;;;;;;;3.10;1.42;;;18.50;84.50;;;;;;6248956;23;20000;-72
2021/08/02 08:15:09;;;;;;;3.20;1.20;;;18.70;84.50;;;;;;6247988;23;20007;-72
2021/08/02 08:17:35;;;;;;;3.00;1.33;;;19.50;82.20;;;;;;6248863;23;20043;-73
2021/08/02 08:20:02;;;;;;;2.80;1.35;;;19.30;81.20;;;;;;6249336;23;20000;-71
2021/08/02 08:22:28;;;;;;;3.03;1.33;;;19.00;83.90;;;;;;6249328;23;20074;-72
2021/08/02 08:24:57;;;;;;;4.13;1.70;;;18.90;83.90;;;;;;6249280;23;19996;-72
2021/08/02 08:27:23;;;;;;;3.42;1.50;;;19.20;83.30;;;;;;6248823;23;19996;-73
2021/08/02 08:29:49;;;;;;;2.38;1.30;;;20.10;80.80;;;;;;6247872;23;20262;-73
2021/08/02 08:32:14;;;;;;;4.45;1.30;;;20.80;77.60;;;;;;6249285;23;20103;-72
2021/08/02 08:34:40;;;;;;;3.65;1.50;;;20.80;78.10;;;;;;6249587;23;20004;-72
2021/08/02 08:37:05;;;;;;;3.70;1.30;;;20.50;78.60;;;;;;6249227;23;20000;-72
2021/08/02 08:39:31;;;;;;;5.97;1.90;;;20.30;79.90;;;;;;6249261;23;20008;-73
2021/08/02 08:41:58;;;;;;;3.22;1.40;;;20.40;79.80;;;;;;6248876;23;20004;-70
2021/08/02 08:44:27;;;;;;;3.40;1.38;;;20.50;78.90;;;;;;6247319;23;20043;-72
2021/08/02 08:46:53;;;;;;;3.70;1.70;;;20.90;78.10;;;;;;6249268;23;20028;-72
2021/08/02 08:49:21;;;;;;;3.88;1.50;;;20.90;78.30;;;;;;6248933;23;20008;-71
2021/08/02 08:51:47;;;;;;;3.22;1.25;;;21.00;77.10;;;;;;6248557;23;20082;-72
2021/08/02 08:54:13;;;;;;;4.70;1.60;;;21.00;78.30;;;;;;6248624;23;20008;-72
2021/08/02 08:56:39;;;;;;;5.68;1.80;;;20.90;78.60;;;;;;6249152;23;20004;-73
2021/08/02 08:59:05;;;;;;;4.38;1.58;;;21.00;78.00;;;;;;6221428;23;20066;-72
2021/08/02 09:01:31;;;;;;;3.28;1.50;;;20.90;78.20;;;;;;6248315;23;20381;-72
2021/08/02 09:03:59;;;;;;;3.80;1.75;;;21.40;78.40;;;;;;6249376;23;20008;-72
2021/08/02 09:06:25;;;;;;;4.18;1.55;;;21.40;76.70;;;;;;6249187;23;19996;-72
2021/08/02 09:08:51;;;;;;;2.47;1.30;;;21.00;76.10;;;;;;6248976;23;20365;-72
2021/08/02 09:11:25;;;;;;;4.30;1.48;;;20.80;74.90;;;;;;6249208;23;20000;-72
2021/08/02 09:13:54;;;;;;;3.97;1.42;;;20.90;77.10;;;;;;6249059;23;20004;-72
2021/08/02 09:16:26;;;;;;;3.15;1.40;;;20.60;77.80;;;;;;6220731;23;20042;-72
2021/08/02 09:18:58;;;;;;;4.60;1.65;;;20.20;79.10;;;;;;6249254;23;20055;-72
2021/08/02 09:21:25;;;;;;;8.55;1.80;;;20.10;79.50;;;;;;6250651;23;20079;-72
2021/08/02 09:23:53;;;;;;;3.70;1.50;;;20.20;80.60;;;;;;6250976;23;20262;-72
2021/08/02 09:26:33;;;;;;;3.83;1.73;;;19.90;80.30;;;;;;6250473;23;20019;-72
2021/08/02 09:28:59;;;;;;;4.32;1.83;;;19.60;81.20;;;;;;6250612;23;20378;-72
2021/08/02 09:31:51;;;;;;;3.85;1.60;;;19.40;83.20;;;;;;6249177;23;20011;-73
2021/08/02 09:34:16;;;;;;;5.68;1.90;;;19.10;83.50;;;;;;6236859;23;20000;-72
2021/08/02 09:36:49;;;;;;;5.63;1.92;;;19.10;84.70;;;;;;6250616;23;20004;-72
2021/08/02 09:39:16;;;;;;;4.43;1.70;;;19.20;84.50;;;;;;6251158;23;20061;-72
2021/08/02 09:41:43;;;;;;;3.50;1.50;;;19.10;83.10;;;;;;6250639;23;20274;-72
2021/08/02 09:44:22;;;;;;;3.47;1.50;;;19.20;82.70;;;;;;6248932;23;20008;-72
2021/08/02 09:47:08;;;;;;;3.58;1.55;;;19.60;83.00;;;;;;6250716;23;19996;-72
2021/08/02 09:49:45;;;;;;;3.10;1.50;;;19.90;80.10;;;;;;6250918;23;20023;-71
2021/08/02 09:52:12;;;;;;;4.38;1.85;;;19.80;81.30;;;;;;6250416;23;20247;-71
2021/08/02 09:54:37;;;;;;;2.88;1.42;;;19.70;83.00;;;;;;6250589;23;20004;-71
2021/08/02 09:57:05;;;;;;;3.00;1.42;;;20.00;82.00;;;;;;6250592;23;20004;-71
2021/08/02 09:59:32;;;;;;;3.83;1.60;;;19.90;82.00;;;;;;6249252;23;20050;-73
2021/08/02 10:01:58;;;;;;;3.58;1.73;;;20.40;82.10;;;;;;6250462;23;20001;-72
2021/08/02 10:04:24;;;;;;;4.20;1.42;;;21.30;78.00;;;;;;6250547;23;19996;-72
2021/08/02 10:06:51;;;;;;;3.95;1.58;;;21.20;78.10;;;;;;6249188;23;20309;-72
2021/08/02 10:09:17;;;;;;;4.90;1.52;;;21.10;78.40;;;;;;6250740;23;20000;-73
2021/08/02 10:11:43;;;;;;;3.03;1.27;;;21.70;76.40;;;;;;6250344;23;20011;-72
2021/08/02 10:14:12;;;;;;;4.10;1.40;;;22.50;76.50;;;;;;6248411;23;20008;-72
2021/08/02 10:16:43;;;;;;;3.70;1.45;;;23.10;72.40;;;;;;6250699;23;20008;-72
2021/08/02 10:19:10;;;;;;;3.80;1.48;;;22.30;73.40;;;;;;6250245;23;20004;-72
2021/08/02 10:21:48;;;;;;;2.80;1.30;;;23.30;72.90;;;;;;6250161;23;20073;-72
2021/08/02 10:24:16;;;;;;;3.72;1.60;;;24.70;69.70;;;;;;6250125;23;20316;-72
2021/08/02 10:26:57;;;;;;;3.17;1.35;;;23.90;69.70;;;;;;6249709;23;20004;-72
2021/08/02 10:29:23;;;;;;;4.10;1.33;;;23.00;70.90;;;;;;6222280;23;20111;-72
2021/08/02 10:31:55;;;;;;;3.53;1.67;;;23.10;69.00;;;;;;6249632;23;20007;-72
2021/08/02 10:34:24;;;;;;;4.55;1.75;;;23.20;71.70;;;;;;6249503;23;20024;-72
2021/08/02 10:36:57;;;;;;;7.60;1.33;;;22.90;68.90;;;;;;6250245;23;20167;-72
2021/08/02 10:39:23;;;;;;;3.65;1.42;;;22.20;72.50;;;;;;6223865;23;20004;-72
2021/08/02 10:41:49;;;;;;;3.75;1.60;;;21.50;74.70;;;;;;6249717;23;20011;-72
2021/08/02 10:44:16;;;;;;;3.78;1.60;;;21.60;77.50;;;;;;6216907;23;20008;-72
2021/08/02 10:46:42;;;;;;;5.30;1.60;;;22.00;75.50;;;;;;6220009;23;20028;-72
2021/08/02 10:49:15;;;;;;;3.17;1.67;;;21.70;75.80;;;;;;6219949;23;20359;-72
2021/08/02 10:51:46;;;;;;;3.72;1.58;;;21.60;75.80;;;;;;6219715;23;20051;-71
2021/08/02 10:54:12;;;;;;;2.88;1.30;;;21.60;75.30;;;;;;6219395;23;20011;-72
2021/08/02 10:56:38;;;;;;;3.33;1.58;;;21.30;74.40;;;;;;6219524;23;19996;-71
2021/08/02 10:59:03;;;;;;;3.03;1.40;;;21.30;76.10;;;;;;6218551;23;20008;-71
2021/08/02 11:01:29;;;;;;;3.10;1.50;;;21.30;78.00;;;;;;6218724;23;20282;-72
2021/08/02 11:03:57;;;;;;;4.57;1.50;;;21.50;76.50;;;;;;6219180;23;19996;-73
2021/08/02 11:06:23;;;;;;;3.90;1.55;;;21.50;77.50;;;;;;6219532;23;20358;-71
2021/08/02 11:08:49;;;;;;;3.83;1.65;;;21.40;75.30;;;;;;6219190;23;20012;-72
2021/08/02 11:11:34;;;;;;;2.97;1.40;;;21.50;74.90;;;;;;6219224;23;20028;-71
2021/08/02 11:14:19;;;;;;;3.08;1.50;;;21.30;75.70;;;;;;6217420;23;20016;-72
2021/08/02 11:16:45;;;;;;;2.83;1.30;;;21.50;75.50;;;;;;6218987;23;20005;-71
2021/08/02 11:19:24;;;;;;;3.95;1.52;;;22.40;72.90;;;;;;6218750;23;20239;-71
2021/08/02 11:21:57;;;;;;;4.57;1.40;;;23.40;72.80;;;;;;6218482;23;20366;-73
2021/08/02 11:24:23;;;;;;;3.25;1.35;;;23.50;70.00;;;;;;6218758;23;20004;-72
2021/08/02 11:26:55;;;;;;;2.50;1.20;;;23.90;70.20;;;;;;6218740;23;20000;-72
2021/08/02 11:29:27;;;;;;;4.18;1.30;;;24.90;68.30;;;;;;6217282;23;20099;-72
2021/08/02 11:31:55;;;;;;;3.70;1.55;;;25.10;67.40;;;;;;6219272;23;20062;-72
2021/08/02 11:34:24;;;;;;;2.42;1.10;;;24.60;65.20;;;;;;6219137;23;20004;-72
2021/08/02 11:37:07;;;;;;;2.15;1.00;;;23.80;68.40;;;;;;6219133;23;20005;-72
2021/08/02 11:39:38;;;;;;;4.93;1.30;;;23.60;70.50;;;;;;6218027;23;20004;-72
2021/08/02 11:42:07;;;;;;;5.25;1.40;;;23.90;68.30;;;;;;6218000;23;20007;-72
2021/08/02 11:44:37;;;;;;;2.85;1.30;;;23.80;70.50;;;;;;6229190;23;20047;-71
2021/08/02 11:47:07;;;;;;;10.25;1.20;;;24.00;68.00;;;;;;6248030;23;19996;-70
2021/08/02 11:49:38;;;;;;;2.20;0.93;;;23.80;66.50;;;;;;6248647;23;20417;-70
2021/08/02 11:52:05;;;;;;;2.38;1.20;;;23.30;67.40;;;;;;6248360;23;20000;-71
2021/08/02 11:54:31;;;;;;;2.63;1.10;;;23.70;65.50;;;;;;6221805;23;20012;-72
2021/08/02 11:56:56;;;;;;;2.45;1.05;;;23.40;67.50;;;;;;6249349;23;20004;-71
2021/08/02 11:59:24;;;;;;;1.60;1.02;;;23.00;69.60;;;;;;6247437;23;20010;-71
2021/08/02 12:01:53;;;;;;;2.50;1.20;;;23.30;67.80;;;;;;6249214;23;20008;-71
2021/08/02 12:04:21;;;;;;;4.78;1.40;;;23.10;69.50;;;;;;6222638;23;20027;-71
2021/08/02 12:07:07;;;;;;;3.95;1.42;;;23.00;68.50;;;;;;6249000;23;20110;-71
2021/08/02 12:09:34;;;;;;;2.85;1.38;;;22.80;67.50;;;;;;6248767;23;19996;-71
2021/08/02 12:12:01;;;;;;;3.13;1.40;;;22.40;68.50;;;;;;6248584;23;20012;-72
2021/08/02 12:14:30;;;;;;;3.38;1.20;;;21.80;69.60;;;;;;6248061;23;20004;-72
2021/08/02 12:17:10;;;;;;;3.65;1.50;;;21.80;71.90;;;;;;6248913;23;20015;-72
2021/08/02 12:19:46;;;;;;;3.17;1.40;;;21.60;72.00;;;;;;6248477;23;20000;-71
2021/08/02 12:22:13;;;;;;;2.88;1.55;;;21.20;73.30;;;;;;6249140;23;20079;-72
2021/08/02 12:24:59;;;;;;;3.58;1.70;;;21.10;75.70;;;;;;6249051;23;20007;-72
2021/08/02 12:27:26;;;;;;;4.13;1.70;;;21.10;76.30;;;;;;6249340;23;20317;-73
2021/08/02 12:30:09;;;;;;;4.40;1.80;;;21.20;75.90;;;;;;6247400;23;20008;-72
2021/08/02 12:32:42;;;;;;;4.22;1.52;;;21.20;77.10;;;;;;6247895;23;20010;-71
2021/08/02 12:35:13;;;;;;;4.55;1.80;;;21.00;77.70;;;;;;6247145;23;20039;-71
2021/08/02 12:37:40;;;;;;;3.10;1.40;;;20.60;78.60;;;;;;6219738;23;20270;-71
2021/08/02 12:40:09;;;;;;;5.32;1.20;;;20.30;78.90;;;;;;6247505;23;20065;-70
2021/08/02 12:42:40;;;;;;;2.38;1.00;;;20.20;73.70;;;;;;6247791;23;20004;-71
2021/08/02 12:45:07;;;;;;;2.00;0.93;;;20.00;70.40;;;;;;6246993;23;20015;-71
2021/08/02 12:47:33;;;;;;;1.80;0.80;;;19.80;70.90;;;;;;6247462;23;20031;-71
2021/08/02 12:49:59;;;;;;;1.98;0.77;;;20.20;71.40;;;;;;6249041;23;20008;-70
2021/08/02 12:52:27;;;;;;;1.58;0.90;;;20.50;69.70;;;;;;6248389;23;20028;-70